Time;durP1;ratioP1;P1;durP2;ratioP2;P2;SDS_P1;SDS_P2;PMS_P1;PMS_P2;Temp;Humidity;BMP_temperature;BMP_pressure;BME280_temperature;BME280_humidity;BME280_pressure;Samples;Min_cycle;Max_cycle;Signal;HPM_P1;HPM_P2
2020/12/16 00:00:13;;;;;;;44.40;24.83;;;;;;;7.82;100.00;100474.75;5099624;28;20040;-65
2020/12/16 00:02:57;;;;;;;46.15;23.88;;;;;;;7.83;100.00;100468.47;5084537;28;20059;-65
2020/12/16 00:05:42;;;;;;;63.45;27.38;;;;;;;7.94;100.00;100478.25;5100023;28;20161;-65
2020/12/16 00:08:26;;;;;;;74.15;29.17;;;;;;;7.95;100.00;100478.09;5099578;28;20093;-65
2020/12/16 00:11:10;;;;;;;68.07;27.15;;;;;;;8.02;100.00;100486.41;5069850;28;20054;-65
2020/12/16 00:13:54;;;;;;;55.53;24.63;;;;;;;8.01;100.00;100480.28;5099747;28;20096;-65
2020/12/16 00:16:37;;;;;;;45.95;22.98;;;;;;;7.99;100.00;100490.19;5099391;28;20507;-65
2020/12/16 00:19:22;;;;;;;37.65;20.80;;;;;;;7.96;100.00;100493.06;5083986;28;20047;-64
2020/12/16 00:22:05;;;;;;;50.83;24.05;;;;;;;7.94;100.00;100489.69;5096729;28;20089;-65
2020/12/16 00:24:49;;;;;;;51.38;23.95;;;;;;;7.97;100.00;100497.44;5081150;28;20059;-65
2020/12/16 00:27:34;;;;;;;97.95;28.15;;;;;;;8.01;100.00;100496.22;5081091;28;20534;-65
2020/12/16 00:30:18;;;;;;;46.50;20.15;;;;;;;8.04;100.00;100503.09;5080994;28;20427;-64
2020/12/16 00:33:02;;;;;;;47.90;22.35;;;;;;;8.02;100.00;100502.34;5080656;28;20096;-64
2020/12/16 00:35:47;;;;;;;50.35;22.48;;;;;;;7.99;100.00;100507.91;5081009;28;20047;-65
2020/12/16 00:38:31;;;;;;;43.10;19.73;;;;;;;7.98;100.00;100511.53;5080833;28;20102;-65
2020/12/16 00:41:16;;;;;;;;;;;;;;;7.99;100.00;100515.88;5080929;28;20071;-65
2020/12/16 00:44:01;;;;;;;49.22;18.80;;;;;;;8.04;100.00;100511.06;5080741;28;19961;-65
2020/12/16 00:46:45;;;;;;;88.60;24.58;;;;;;;8.07;100.00;100510.81;5066328;28;20042;-65
2020/12/16 00:49:29;;;;;;;50.22;20.85;;;;;;;8.04;100.00;100511.06;5095706;28;20047;-64
2020/12/16 00:52:13;;;;;;;264.20;31.05;;;;;;;8.07;100.00;100510.81;5095627;28;20101;-65
2020/12/16 00:54:57;;;;;;;65.05;21.63;;;;;;;8.06;100.00;100511.78;5080340;28;20097;-65
2020/12/16 00:57:41;;;;;;;55.17;21.83;;;;;;;8.01;100.00;100511.28;5095775;28;20634;-64
2020/12/16 01:00:25;;;;;;;51.33;21.00;;;;;;;7.98;100.00;100516.84;5095719;28;20180;-65
2020/12/16 01:03:09;;;;;;;45.25;19.40;;;;;;;7.99;100.00;100515.88;5080136;28;20062;-65
2020/12/16 01:05:53;;;;;;;47.88;22.35;;;;;;;7.98;100.00;100514.19;5095400;28;20097;-64
2020/12/16 01:08:41;;;;;;;42.60;20.00;;;;;;;7.99;100.00;100519.41;5095336;28;20050;-65
2020/12/16 01:11:26;;;;;;;146.60;26.40;;;;;;;7.99;100.00;100513.22;5095187;28;20109;-65
2020/12/16 01:14:10;;;;;;;37.70;17.73;;;;;;;7.99;100.00;100515.88;5065783;28;20519;-64
2020/12/16 01:16:55;;;;;;;40.40;18.30;;;;;;;8.00;100.00;100520.22;5095135;28;20441;-64
2020/12/16 01:19:39;;;;;;;119.88;23.98;;;;;;;7.98;100.00;100508.88;5095331;28;20486;-65
2020/12/16 01:22:22;;;;;;;59.47;21.98;;;;;;;7.96;100.00;100503.69;5095289;28;20498;-65
2020/12/16 01:25:07;;;;;;;51.30;19.67;;;;;;;7.95;100.00;100512.63;5095565;28;20428;-65
2020/12/16 01:27:55;;;;;;;73.63;17.27;;;;;;;7.96;100.00;100508.16;5095192;28;20051;-64
2020/12/16 01:30:39;;;;;;;34.22;14.55;;;;;;;7.98;100.00;100516.84;5079738;28;20530;-65
2020/12/16 01:33:24;;;;;;;25.50;12.52;;;;;;;8.00;100.00;100514.91;5078684;28;20109;-65
2020/12/16 01:36:10;;;;;;;29.40;13.02;;;;;;;8.02;100.00;100523.59;5095326;28;20055;-65
2020/12/16 01:38:54;;;;;;;41.47;14.40;;;;;;;8.02;100.00;100523.59;5079712;28;20071;-65
2020/12/16 01:41:46;;;;;;;28.08;11.73;;;;;;;7.99;100.00;100530.00;5079392;28;20117;-65
2020/12/16 01:44:30;;;;;;;50.65;14.98;;;;;;;8.00;100.00;100525.53;5094892;28;20408;-65
2020/12/16 01:47:15;;;;;;;120.00;17.00;;;;;;;7.98;100.00;100528.31;5094865;28;20051;-64
2020/12/16 01:49:59;;;;;;;59.65;15.82;;;;;;;7.98;100.00;100530.13;5079188;28;20043;-65
2020/12/16 01:52:43;;;;;;;34.08;14.07;;;;;;;7.97;100.00;100536.41;5094595;28;20128;-64
2020/12/16 01:55:27;;;;;;;118.78;18.25;;;;;;;7.90;100.00;100548.47;5094638;28;20515;-65
2020/12/16 01:58:13;;;;;;;40.03;13.30;;;;;;;7.90;100.00;100551.13;5079229;28;20050;-65
2020/12/16 02:00:59;;;;;;;23.10;12.88;;;;;;;7.84;100.00;100552.44;5079098;28;20101;-65
2020/12/16 02:03:43;;;;;;;28.02;13.35;;;;;;;7.85;100.00;100546.16;5079208;28;20435;-65
2020/12/16 02:06:33;;;;;;;48.60;15.77;;;;;;;7.84;100.00;100547.13;5094318;28;20051;-65
2020/12/16 02:09:19;;;;;;;23.75;12.15;;;;;;;7.87;100.00;100543.41;5094163;28;20108;-64
2020/12/16 02:12:18;;;;;;;30.00;10.48;;;;;;;7.85;100.00;100542.69;5078642;28;20503;-65
2020/12/16 02:15:07;;;;;;;20.13;10.35;;;;;;;7.81;100.00;100541.22;5078696;28;20047;-65
2020/12/16 02:17:51;;;;;;;30.42;11.43;;;;;;;7.74;100.00;100545.34;5078656;28;20046;-64
2020/12/16 02:20:35;;;;;;;39.00;12.82;;;;;;;7.72;100.00;100548.09;5093894;28;20059;-65
2020/12/16 02:23:22;;;;;;;43.90;12.32;;;;;;;7.72;100.00;100553.41;5078909;28;20051;-65
2020/12/16 02:26:07;;;;;;;32.83;12.85;;;;;;;7.74;100.00;100550.63;5078832;28;20050;-65
2020/12/16 02:28:51;;;;;;;26.70;10.45;;;;;;;7.72;100.00;100542.78;5094136;28;20096;-64
2020/12/16 02:31:37;;;;;;;24.27;10.77;;;;;;;7.71;100.00;100545.53;5093932;28;20086;-65
2020/12/16 02:34:21;;;;;;;29.42;11.13;;;;;;;7.73;100.00;100546.28;5093732;28;20086;-65
2020/12/16 02:37:05;;;;;;;31.58;11.05;;;;;;;7.76;100.00;100540.75;5078615;28;20140;-64
2020/12/16 02:39:49;;;;;;;24.55;10.55;;;;;;;7.74;100.00;100545.34;5078587;28;20046;-65
2020/12/16 02:42:33;;;;;;;25.83;10.25;;;;;;;7.73;100.00;100547.13;5078623;28;20096;-64
2020/12/16 02:45:17;;;;;;;83.13;13.18;;;;;;;7.71;100.00;100538.44;5093484;28;20511;-65
2020/12/16 02:48:01;;;;;;;23.67;9.98;;;;;;;7.73;100.00;100541.00;5093543;28;20506;-64
2020/12/16 02:50:45;;;;;;;23.23;10.55;;;;;;;7.71;100.00;100543.75;5078459;28;20503;-65
2020/12/16 02:53:29;;;;;;;;;;;;;;;7.70;100.00;100542.06;5064725;28;20087;-64
2020/12/16 02:56:13;;;;;;;44.13;13.53;;;;;;;7.71;100.00;100538.44;5078250;28;20000;-65
2020/12/16 02:58:58;;;;;;;42.83;12.38;;;;;;;7.72;100.00;100528.69;5093365;28;20051;-64
2020/12/16 03:01:42;;;;;;;33.50;12.45;;;;;;;7.72;100.00;100526.03;5078362;28;20155;-65
2020/12/16 03:04:26;;;;;;;57.00;14.32;;;;;;;7.73;100.00;100525.06;5078393;28;20549;-64
2020/12/16 03:07:10;;;;;;;46.80;13.85;;;;;;;7.70;100.00;100525.28;5078303;28;20101;-64
2020/12/16 03:09:54;;;;;;;48.47;14.13;;;;;;;7.69;100.00;100526.25;5093596;28;20047;-65
2020/12/16 03:12:38;;;;;;;33.78;13.40;;;;;;;7.64;100.00;100529.25;5196144;22;20093;-68
2020/12/16 03:15:22;;;;;;;43.65;13.50;;;;;;;7.66;100.00;100532.66;5078013;28;20522;-67
2020/12/16 03:18:05;;;;;;;32.13;12.88;;;;;;;7.63;100.00;100529.41;5077851;28;20566;-68
2020/12/16 03:20:49;;;;;;;27.42;12.38;;;;;;;7.62;100.00;100533.03;5093121;28;20043;-68
2020/12/16 03:23:35;;;;;;;34.95;11.57;;;;;;;7.63;100.00;100527.59;5077946;28;20051;-68
2020/12/16 03:26:19;;;;;;;35.97;13.75;;;;;;;7.64;100.00;100536.41;5077877;28;20070;-68
2020/12/16 03:29:03;;;;;;;27.60;11.80;;;;;;;7.64;100.00;100539.88;5078158;28;20047;-68
2020/12/16 03:31:47;;;;;;;25.98;12.07;;;;;;;7.64;100.00;100534.56;5093012;28;20097;-68
2020/12/16 03:34:31;;;;;;;36.55;12.43;;;;;;;7.62;100.00;100531.19;5093079;28;20046;-67
2020/12/16 03:37:15;;;;;;;49.10;13.57;;;;;;;7.62;100.00;100530.38;5093016;28;20127;-68
2020/12/16 03:39:59;;;;;;;28.13;12.00;;;;;;;7.65;100.00;100524.81;5077898;28;20522;-66
2020/12/16 03:42:43;;;;;;;34.58;12.63;;;;;;;7.64;100.00;100539.06;5077968;28;20055;-68
2020/12/16 03:45:27;;;;;;;39.47;13.00;;;;;;;7.62;100.00;100536.50;5077949;28;20519;-68
2020/12/16 03:48:11;;;;;;;33.03;12.02;;;;;;;7.60;100.00;100534.94;5077958;28;20558;-67
2020/12/16 03:50:55;;;;;;;29.90;12.30;;;;;;;7.58;100.00;100540.38;5092863;28;20514;-67
2020/12/16 03:53:39;;;;;;;24.63;11.77;;;;;;;7.56;100.00;100546.75;5092865;28;20085;-68
2020/12/16 03:56:23;;;;;;;47.10;14.70;;;;;;;7.55;100.00;100543.25;5078024;28;20093;-68
2020/12/16 03:59:07;;;;;;;39.17;14.95;;;;;;;7.57;100.00;100544.97;5096590;28;20051;-68
2020/12/16 04:01:51;;;;;;;45.60;12.35;;;;;;;7.56;100.00;100546.75;5096578;28;20104;-68
2020/12/16 04:04:35;;;;;;;27.88;11.80;;;;;;;7.57;100.00;100548.44;5081232;28;20519;-67
2020/12/16 04:07:19;;;;;;;32.05;11.88;;;;;;;7.57;100.00;100553.75;5096792;28;20069;-66
2020/12/16 04:10:03;;;;;;;42.63;12.43;;;;;;;7.53;100.00;100552.31;5096749;28;20039;-68
2020/12/16 04:12:47;;;;;;;28.05;10.20;;;;;;;7.50;100.00;100544.56;5080975;28;20074;-67
2020/12/16 04:15:31;;;;;;;57.95;12.15;;;;;;;7.47;100.00;100558.06;5081330;28;20050;-67
2020/12/16 04:18:15;;;;;;;48.78;12.73;;;;;;;7.47;100.00;100558.06;5096319;28;20059;-67
2020/12/16 04:20:59;;;;;;;41.30;12.15;;;;;;;7.47;100.00;100551.94;5081153;28;20051;-67
2020/12/16 04:23:43;;;;;;;26.48;11.48;;;;;;;7.45;100.00;100557.34;5096471;28;20120;-67
2020/12/16 04:26:28;;;;;;;36.17;12.80;;;;;;;7.47;100.00;100565.19;5096490;28;20108;-67
2020/12/16 04:29:11;;;;;;;;;;;;;;;7.49;100.00;100565.91;5096821;28;20135;-67
2020/12/16 04:31:55;;;;;;;25.63;11.60;;;;;;;7.51;100.00;100570.13;5080872;28;20004;-67
2020/12/16 04:34:39;;;;;;;25.15;11.88;;;;;;;7.53;100.00;100574.34;5096463;28;20051;-67
2020/12/16 04:37:24;;;;;;;23.30;10.98;;;;;;;7.56;100.00;100562.66;5096247;28;20550;-67
2020/12/16 04:40:08;;;;;;;22.45;10.63;;;;;;;7.54;100.00;100567.25;5095845;28;20047;-67
2020/12/16 04:43:06;;;;;;;27.13;11.57;;;;;;;7.55;100.00;100560.97;5095838;28;20055;-67
2020/12/16 04:45:51;;;;;;;25.45;11.35;;;;;;;7.56;100.00;100570.63;5080555;28;20038;-67
2020/12/16 04:48:36;;;;;;;29.65;12.00;;;;;;;7.52;100.00;100569.19;5095684;28;20051;-67
2020/12/16 04:51:21;;;;;;;27.35;11.80;;;;;;;7.51;100.00;100575.44;5095813;28;20055;-67
2020/12/16 04:54:05;;;;;;;28.45;12.48;;;;;;;7.51;100.00;100577.25;5095939;28;20050;-67
2020/12/16 04:56:50;;;;;;;33.08;13.05;;;;;;;7.51;100.00;100570.13;5080254;28;20070;-67
2020/12/16 04:59:34;;;;;;;28.55;13.23;;;;;;;7.55;100.00;100566.28;5080354;28;20253;-66
2020/12/16 05:02:17;;;;;;;30.92;13.57;;;;;;;7.57;100.00;100569.66;5095445;28;20051;-67
2020/12/16 05:05:02;;;;;;;35.28;15.32;;;;;;;7.57;100.00;100580.28;5080044;28;20094;-66
2020/12/16 05:07:48;;;;;;;34.75;14.45;;;;;;;7.62;100.00;100583.44;5095541;28;20054;-66
2020/12/16 05:10:34;;;;;;;31.50;13.23;;;;;;;7.62;100.00;100581.59;5080371;28;20051;-66
2020/12/16 05:13:21;;;;;;;37.67;14.90;;;;;;;7.61;100.00;100597.63;5079874;28;20054;-66
2020/12/16 05:16:05;;;;;;;33.95;14.88;;;;;;;7.62;100.00;100602.00;5079897;28;20082;-67
2020/12/16 05:18:49;;;;;;;31.73;14.65;;;;;;;7.62;100.00;100604.66;5095354;28;20047;-67
2020/12/16 05:21:33;;;;;;;31.05;14.45;;;;;;;7.70;100.00;100603.09;5080009;28;20097;-67
2020/12/16 05:24:20;;;;;;;29.23;12.90;;;;;;;7.64;100.00;100597.44;5079755;28;20127;-67
2020/12/16 05:27:07;;;;;;;25.33;11.98;;;;;;;7.65;100.00;100604.41;5079697;28;20082;-66
2020/12/16 05:29:53;;;;;;;28.75;11.77;;;;;;;7.65;100.00;100597.28;5079829;28;20058;-66
2020/12/16 05:32:37;;;;;;;26.95;12.48;;;;;;;7.66;100.00;100606.97;5094764;28;20172;-67
2020/12/16 05:35:27;;;;;;;29.45;13.10;;;;;;;7.73;100.00;100599.38;5079770;28;20055;-67
2020/12/16 05:38:11;;;;;;;30.40;14.38;;;;;;;7.77;100.00;100599.03;5079316;28;20090;-67
2020/12/16 05:40:55;;;;;;;31.35;14.02;;;;;;;7.71;100.00;100598.63;5079342;28;20082;-67
2020/12/16 05:43:39;;;;;;;33.45;14.25;;;;;;;7.71;100.00;100593.31;5094647;28;20531;-67
2020/12/16 05:46:25;;;;;;;29.67;13.07;;;;;;;7.71;100.00;100591.53;5079523;28;20054;-67
2020/12/16 05:49:22;;;;;;;28.55;12.68;;;;;;;7.72;100.00;100587.06;5065200;28;20511;-67
2020/12/16 05:52:06;;;;;;;30.05;13.80;;;;;;;7.72;100.00;100595.03;5079454;28;20077;-63
2020/12/16 05:54:52;;;;;;;30.90;13.23;;;;;;;7.72;100.00;100595.03;5094335;28;20059;-66
2020/12/16 05:57:36;;;;;;;29.75;13.23;;;;;;;7.73;100.00;100602.84;5094660;28;20105;-67
2020/12/16 06:00:21;;;;;;;30.48;13.50;;;;;;;7.73;100.00;100591.41;5079226;28;20043;-67
2020/12/16 06:03:05;;;;;;;30.80;12.73;;;;;;;7.74;100.00;100595.75;5079255;28;20059;-67
2020/12/16 06:05:51;;;;;;;27.17;12.65;;;;;;;7.76;100.00;100599.13;5064790;28;20104;-67
2020/12/16 06:08:37;;;;;;;30.60;14.10;;;;;;;7.75;100.00;100600.09;5094433;28;20043;-67
2020/12/16 06:11:22;;;;;;;27.50;13.70;;;;;;;7.74;100.00;100599.22;5078645;28;20070;-67
2020/12/16 06:14:06;;;;;;;27.95;12.68;;;;;;;7.73;100.00;100600.19;5079111;28;20097;-66
2020/12/16 06:16:50;;;;;;;35.05;15.02;;;;;;;7.74;100.00;100593.09;5079057;28;20123;-66
2020/12/16 06:19:35;;;;;;;39.38;15.63;;;;;;;7.74;100.00;100590.44;5078048;28;20043;-67
2020/12/16 06:22:22;;;;;;;35.63;16.42;;;;;;;7.73;100.00;100594.06;5093940;28;20092;-67
2020/12/16 06:25:07;;;;;;;41.08;16.55;;;;;;;7.73;100.00;100602.84;5078924;28;20172;-67
2020/12/16 06:27:52;;;;;;;37.38;15.43;;;;;;;7.73;100.00;100607.34;5078949;28;20553;-67
2020/12/16 06:30:37;;;;;;;40.97;16.98;;;;;;;7.75;100.00;100619.50;5078593;28;20138;-67
2020/12/16 06:33:41;;;;;;;36.78;14.82;;;;;;;7.74;100.00;100619.63;5094116;28;20124;-67
2020/12/16 06:36:31;;;;;;;28.33;14.48;;;;;;;7.79;100.00;100613.00;5093830;28;20440;-67
2020/12/16 06:39:17;;;;;;;39.58;15.50;;;;;;;7.79;100.00;100625.41;5078466;28;20189;-67
2020/12/16 06:42:01;;;;;;;32.67;14.93;;;;;;;7.78;100.00;100635.22;5078587;28;20055;-67
2020/12/16 06:45:14;;;;;;;30.63;14.35;;;;;;;7.81;100.00;100639.41;5093605;28;20519;-67
2020/12/16 06:48:41;;;;;;;27.70;13.70;;;;;;;7.79;100.00;100644.84;5093855;28;20042;-67
2020/12/16 06:51:36;;;;;;;33.90;15.95;;;;;;;7.77;100.00;100641.47;5092774;28;20069;-67
2020/12/16 06:54:22;;;;;;;35.75;15.07;;;;;;;7.79;100.00;100638.69;5093583;28;20510;-67
2020/12/16 06:57:13;;;;;;;32.80;15.13;;;;;;;7.77;100.00;100640.63;5093458;28;20144;-67
2020/12/16 06:59:59;;;;;;;29.50;14.00;;;;;;;7.77;100.00;100651.25;5093591;28;20412;-67
2020/12/16 07:02:43;;;;;;;32.63;14.90;;;;;;;7.77;100.00;100643.28;5078286;28;20082;-67
2020/12/16 07:05:41;;;;;;;29.73;13.75;;;;;;;7.79;100.00;100659.94;5093638;28;20124;-66
2020/12/16 07:08:28;;;;;;;36.72;15.65;;;;;;;7.80;100.00;100656.31;5064336;28;20043;-67
2020/12/16 07:11:12;;;;;;;29.48;14.32;;;;;;;7.81;100.00;100660.66;5078220;28;20515;-67
2020/12/16 07:14:10;;;;;;;37.83;16.27;;;;;;;7.83;100.00;100661.41;5078275;28;20093;-67
2020/12/16 07:17:04;;;;;;;35.80;15.50;;;;;;;7.85;100.00;100664.78;5077990;28;20499;-67
2020/12/16 07:19:48;;;;;;;34.13;15.60;;;;;;;7.85;100.00;100664.78;5093075;28;20093;-67
2020/12/16 07:22:34;;;;;;;27.92;13.50;;;;;;;7.82;100.00;100659.72;5078103;28;20059;-67
2020/12/16 07:25:19;;;;;;;27.10;13.48;;;;;;;7.83;100.00;100658.75;5093143;28;20062;-67
2020/12/16 07:28:04;;;;;;;31.27;14.60;;;;;;;7.83;100.00;100666.72;5093421;28;20160;-67
2020/12/16 07:30:52;;;;;;;34.15;14.60;;;;;;;7.82;100.00;100671.16;5093997;28;20118;-66
2020/12/16 07:33:36;;;;;;;36.33;15.25;;;;;;;7.80;100.00;100665.13;5097134;28;20483;-66
2020/12/16 07:36:21;;;;;;;33.67;14.68;;;;;;;7.83;100.00;100678.16;5097430;28;20462;-66
2020/12/16 07:39:05;;;;;;;42.50;15.90;;;;;;;7.87;100.00;100678.78;5082015;28;20412;-64
2020/12/16 07:41:50;;;;;;;61.75;17.95;;;;;;;7.88;100.00;100681.31;5097225;28;20080;-67
2020/12/16 07:44:34;;;;;;;;;;;;;;;7.88;100.00;100685.75;5097706;28;20128;-67
2020/12/16 07:47:18;;;;;;;67.40;15.97;;;;;;;7.97;100.00;100685.06;5081623;28;20329;-67
2020/12/16 07:50:03;;;;;;;40.60;15.07;;;;;;;7.94;100.00;100682.66;5097165;28;20063;-66
2020/12/16 07:52:52;;;;;;;57.50;15.48;;;;;;;7.92;100.00;100682.75;5096733;28;20093;-67
2020/12/16 07:55:40;;;;;;;84.20;17.33;;;;;;;7.95;100.00;100681.69;5097013;28;20168;-66
2020/12/16 07:58:24;;;;;;;133.07;19.15;;;;;;;7.86;100.00;100677.09;5096933;28;20046;-66
2020/12/16 08:01:15;;;;;;;98.75;17.00;;;;;;;7.85;100.00;100680.69;5081315;28;20094;-66
2020/12/16 08:03:59;;;;;;;44.13;16.65;;;;;;;7.77;100.00;100678.63;5081673;28;20506;-67
2020/12/16 08:06:43;;;;;;;30.30;13.80;;;;;;;7.78;100.00;100676.81;5081539;28;20554;-67
2020/12/16 08:09:27;;;;;;;44.80;16.85;;;;;;;7.80;100.00;100678.41;5081417;28;20117;-64
2020/12/16 08:12:13;;;;;;;36.80;15.52;;;;;;;7.84;100.00;100674.53;5081050;28;20043;-67
2020/12/16 08:15:17;;;;;;;48.85;17.60;;;;;;;7.88;100.00;100677.81;5096559;28;20055;-66
2020/12/16 08:18:01;;;;;;;39.45;16.13;;;;;;;7.91;100.00;100682.88;5081262;28;20517;-66
2020/12/16 08:20:45;;;;;;;32.08;14.48;;;;;;;7.97;100.00;100680.63;5081162;28;20055;-67
2020/12/16 08:23:29;;;;;;;30.77;14.13;;;;;;;7.99;100.00;100677.81;5081063;28;20407;-66
2020/12/16 08:26:14;;;;;;;94.22;17.67;;;;;;;8.03;100.00;100674.00;5081256;28;20515;-67
2020/12/16 08:29:04;;;;;;;105.32;17.42;;;;;;;8.04;100.00;100675.69;5067248;28;20470;-66
2020/12/16 08:31:47;;;;;;;45.00;15.30;;;;;;;8.02;100.00;100672.28;5080675;28;20054;-67
2020/12/16 08:34:34;;;;;;;29.50;13.93;;;;;;;7.99;100.00;100673.38;5081291;28;20082;-66
2020/12/16 08:37:18;;;;;;;35.42;14.70;;;;;;;8.05;100.00;100677.38;5080724;28;20075;-67
2020/12/16 08:40:03;;;;;;;37.17;15.65;;;;;;;8.12;100.00;100678.56;5080867;28;20043;-66
2020/12/16 08:42:47;;;;;;;33.97;14.88;;;;;;;8.16;100.00;100672.06;5095080;28;20047;-67
2020/12/16 08:45:31;;;;;;;32.13;14.93;;;;;;;8.20;100.00;100678.84;5080793;28;20067;-67
2020/12/16 08:48:15;;;;;;;38.13;15.82;;;;;;;8.23;100.00;100676.81;5096139;28;20474;-67
2020/12/16 08:51:02;;;;;;;49.83;16.00;;;;;;;8.34;100.00;100682.13;5080664;28;20042;-66
2020/12/16 08:53:48;;;;;;;29.35;15.10;;;;;;;8.37;100.00;100678.38;5080551;28;20412;-67
2020/12/16 08:56:50;;;;;;;28.27;14.20;;;;;;;8.43;100.00;100675.22;5080437;28;20055;-66
2020/12/16 08:59:35;;;;;;;26.52;12.45;;;;;;;8.53;100.00;100670.88;5080384;28;20561;-66
2020/12/16 09:02:20;;;;;;;25.95;13.80;;;;;;;8.79;100.00;100670.53;5095412;28;20051;-66
2020/12/16 09:05:04;;;;;;;29.27;15.43;;;;;;;9.04;100.00;100685.31;5080449;28;20097;-67
2020/12/16 09:07:48;;;;;;;30.30;15.40;;;;;;;9.36;100.00;100686.22;5080065;28;20125;-67
2020/12/16 09:10:35;;;;;;;30.15;14.90;;;;;;;9.71;100.00;100682.31;5080325;28;20131;-66
2020/12/16 09:13:19;;;;;;;28.63;13.68;;;;;;;9.95;100.00;100695.34;5116461;22;20407;-69
2020/12/16 09:16:03;;;;;;;25.25;13.93;;;;;;;10.11;100.00;100706.44;5080205;28;20101;-69
2020/12/16 09:18:48;;;;;;;27.90;14.20;;;;;;;10.37;100.00;100701.41;5095363;28;20193;-68
2020/12/16 09:21:34;;;;;;;25.25;14.05;;;;;;;10.46;100.00;100702.41;5080129;28;20047;-68
2020/12/16 09:24:22;;;;;;;24.55;13.98;;;;;;;10.41;100.00;100700.16;5079715;28;20051;-68
2020/12/16 09:27:07;;;;;;;21.98;12.75;;;;;;;10.41;100.00;100697.47;5080010;28;20108;-68
2020/12/16 09:29:52;;;;;;;31.00;19.38;;;;;;;10.39;100.00;100695.91;5079883;28;20131;-68
2020/12/16 09:32:35;;;;;;;21.67;12.52;;;;;;;10.38;100.00;100695.09;5094797;28;20428;-69
2020/12/16 09:35:22;;;;;;;21.77;12.63;;;;;;;10.66;100.00;100689.03;5095149;28;20475;-69
2020/12/16 09:38:17;;;;;;;19.00;12.13;;;;;;;11.78;100.00;100688.53;5079745;28;20058;-69
2020/12/16 09:41:01;;;;;;;19.05;12.20;;;;;;;12.12;96.45;100679.09;5079565;28;20047;-67
2020/12/16 09:43:45;;;;;;;17.15;11.88;;;;;;;12.09;93.66;100681.19;5094572;28;20561;-68
2020/12/16 09:46:30;;;;;;;21.90;13.25;;;;;;;11.91;92.45;100681.09;5079570;28;20059;-68
2020/12/16 09:49:18;;;;;;;21.05;13.05;;;;;;;11.61;93.59;100678.59;5094866;28;20043;-68
2020/12/16 09:52:02;;;;;;;24.38;14.00;;;;;;;11.26;94.95;100683.56;5079210;28;20519;-66
2020/12/16 09:54:47;;;;;;;22.33;14.30;;;;;;;10.97;97.38;100677.31;5078221;28;20384;-67
2020/12/16 09:57:30;;;;;;;19.55;13.30;;;;;;;10.70;98.09;100684.28;5094466;28;20051;-67
2020/12/16 10:00:14;;;;;;;20.77;13.30;;;;;;;10.41;100.00;100686.81;5094354;28;20047;-68
2020/12/16 10:03:09;;;;;;;19.85;13.27;;;;;;;10.25;100.00;100678.44;5065221;28;20108;-68
2020/12/16 10:05:53;;;;;;;;;;;;;;;10.07;100.00;100681.00;5094675;28;20411;-68
2020/12/16 10:08:38;;;;;;;21.00;14.60;;;;;;;9.91;100.00;100672.63;5078943;28;19926;-68
2020/12/16 10:11:22;;;;;;;20.27;14.15;;;;;;;9.91;100.00;100668.13;5094216;28;20050;-68
2020/12/16 10:14:06;;;;;;;21.60;15.00;;;;;;;9.89;100.00;100677.22;5078677;28;20416;-68
2020/12/16 10:16:50;;;;;;;20.50;15.13;;;;;;;9.89;100.00;100682.56;5078712;28;20077;-67
2020/12/16 10:19:33;;;;;;;23.02;14.68;;;;;;;9.93;100.00;100681.31;5094249;28;20101;-68
2020/12/16 10:22:18;;;;;;;19.17;13.32;;;;;;;9.90;100.00;100674.41;5078775;28;20051;-69
2020/12/16 10:25:03;;;;;;;19.23;13.45;;;;;;;9.94;100.00;100677.69;5093995;28;20063;-68
2020/12/16 10:27:47;;;;;;;19.85;14.20;;;;;;;10.01;100.00;100677.00;5094063;28;20180;-68
2020/12/16 10:30:31;;;;;;;25.50;12.70;;;;;;;10.01;100.00;100685.00;5078341;28;20043;-67
2020/12/16 10:33:16;;;;;;;24.98;13.27;;;;;;;10.06;100.00;100676.66;5078398;28;20063;-67
2020/12/16 10:36:00;;;;;;;22.42;13.20;;;;;;;9.99;100.00;100675.47;5093725;28;20047;-67
2020/12/16 10:38:44;;;;;;;93.97;15.65;;;;;;;9.90;100.00;100670.94;5078815;28;20537;-68
2020/12/16 10:41:28;;;;;;;20.33;12.85;;;;;;;9.90;100.00;100676.25;5093815;28;20519;-69
2020/12/16 10:44:12;;;;;;;22.55;13.70;;;;;;;9.92;100.00;100668.97;5093539;28;20051;-68
2020/12/16 10:46:56;;;;;;;22.63;14.98;;;;;;;10.02;100.00;100669.88;5078604;28;20120;-68
2020/12/16 10:49:40;;;;;;;19.33;13.07;;;;;;;10.08;100.00;100677.41;5064309;28;20046;-68
2020/12/16 10:52:25;;;;;;;18.17;13.80;;;;;;;10.10;100.00;100668.28;5093262;28;20051;-68
2020/12/16 10:55:08;;;;;;;20.58;13.77;;;;;;;10.13;100.00;100661.84;5078190;28;20047;-67
2020/12/16 10:57:52;;;;;;;19.50;13.88;;;;;;;10.14;100.00;100669.72;5078158;28;20055;-68
2020/12/16 11:00:36;;;;;;;21.00;15.52;;;;;;;10.25;100.00;100654.47;5078645;28;20388;-68
2020/12/16 11:03:20;;;;;;;21.90;14.60;;;;;;;10.23;100.00;100654.75;5093566;28;20054;-68
2020/12/16 11:06:09;;;;;;;44.55;16.63;;;;;;;10.23;100.00;100652.09;5093084;28;20128;-68
2020/12/16 11:08:52;;;;;;;24.95;16.48;;;;;;;10.23;100.00;100653.78;5093255;28;20051;-69
2020/12/16 11:11:41;;;;;;;28.13;15.98;;;;;;;10.24;100.00;100644.78;5093180;28;20101;-68
2020/12/16 11:14:27;;;;;;;28.20;17.42;;;;;;;10.25;100.00;100635.81;5078075;28;20042;-68
2020/12/16 11:17:12;;;;;;;25.85;17.42;;;;;;;10.31;100.00;100635.31;5093492;28;20054;-67
2020/12/16 11:19:56;;;;;;;25.42;15.52;;;;;;;10.36;100.00;100632.25;5093422;28;20047;-68
2020/12/16 11:22:40;;;;;;;25.75;17.02;;;;;;;10.34;100.00;100631.53;5093031;28;20126;-67
2020/12/16 11:25:24;;;;;;;21.70;15.55;;;;;;;10.43;100.00;100617.41;5093708;28;20066;-68
2020/12/16 11:28:08;;;;;;;30.08;17.25;;;;;;;10.43;100.00;100618.22;5064244;28;20054;-68
2020/12/16 11:30:52;;;;;;;27.35;16.77;;;;;;;10.52;100.00;100606.75;5093105;28;20051;-67
2020/12/16 11:33:36;;;;;;;25.65;16.90;;;;;;;10.61;100.00;100611.28;5093011;28;20047;-68
2020/12/16 11:36:22;;;;;;;25.08;17.45;;;;;;;10.62;100.00;100610.28;5077781;28;20097;-67
2020/12/16 11:39:08;;;;;;;23.65;17.15;;;;;;;10.62;100.00;100607.63;5093189;28;20082;-68
2020/12/16 11:41:54;;;;;;;27.85;17.90;;;;;;;10.70;100.00;100605.13;5063532;28;20074;-68
2020/12/16 11:44:38;;;;;;;26.80;18.30;;;;;;;10.71;100.00;100603.28;5077643;28;20046;-68
2020/12/16 11:47:22;;;;;;;25.83;17.83;;;;;;;10.62;100.00;100602.31;5077676;28;20054;-68
2020/12/16 11:50:08;;;;;;;26.20;17.98;;;;;;;10.69;100.00;100603.44;5093170;28;20160;-67
2020/12/16 11:52:52;;;;;;;23.73;16.45;;;;;;;10.72;100.00;100611.16;5077780;28;20100;-69
2020/12/16 11:55:36;;;;;;;25.48;16.45;;;;;;;10.71;100.00;100614.81;5092804;28;20039;-67
2020/12/16 11:58:20;;;;;;;26.88;17.33;;;;;;;10.63;100.00;100614.66;5077749;28;20059;-68
2020/12/16 12:01:03;;;;;;;29.13;18.40;;;;;;;10.47;100.00;100616.16;5077868;28;20142;-67
2020/12/16 12:03:48;;;;;;;28.23;18.52;;;;;;;10.22;100.00;100611.28;5077448;28;20124;-68
2020/12/16 12:06:32;;;;;;;29.75;18.10;;;;;;;10.21;100.00;100622.06;5093028;28;20043;-68
2020/12/16 12:09:16;;;;;;;33.08;20.02;;;;;;;10.07;100.00;100609.94;5092730;28;20059;-68
2020/12/16 12:12:00;;;;;;;34.40;21.40;;;;;;;10.01;100.00;100612.25;5093216;28;20071;-68
2020/12/16 12:14:44;;;;;;;36.28;21.80;;;;;;;10.00;100.00;100599.94;5077833;28;20055;-68
2020/12/16 12:17:28;;;;;;;35.83;22.17;;;;;;;10.04;100.00;100598.69;5078033;28;20599;-68
2020/12/16 12:20:12;;;;;;;35.63;22.30;;;;;;;10.09;100.00;100607.97;5096533;28;20491;-68
2020/12/16 12:22:56;;;;;;;47.55;21.30;;;;;;;10.16;100.00;100600.28;5066999;28;20051;-69
2020/12/16 12:25:40;;;;;;;41.67;22.15;;;;;;;10.21;100.00;100601.59;5096157;28;20055;-68
2020/12/16 12:28:24;;;;;;;47.08;22.42;;;;;;;10.20;100.00;100601.75;5080830;28;20047;-68
2020/12/16 12:31:08;;;;;;;37.60;21.15;;;;;;;10.18;100.00;100606.38;5081007;28;20067;-68